Time;durP1;ratioP1;P1;durP2;ratioP2;P2;SDS_P1;SDS_P2;PMS_P1;PMS_P2;Temp;Humidity;BMP_temperature;BMP_pressure;BME280_temperature;BME280_humidity;BME280_pressure;Samples;Min_cycle;Max_cycle;Signal;HPM_P1;HPM_P2
2023/11/25 00:01:24;;;;;;;2.60;2.40;;;;;;;3.22;100.00;95591.81;5017228;28;20021;-64
2023/11/25 00:03:49;;;;;;;4.75;3.10;;;;;;;3.27;100.00;95589.75;5019349;28;20037;-64
2023/11/25 00:06:15;;;;;;;3.65;2.55;;;;;;;3.28;100.00;95602.63;5020005;28;20029;-64
2023/11/25 00:08:40;;;;;;;5.57;2.85;;;;;;;3.26;100.00;95608.88;5017657;28;20102;-63
2023/11/25 00:11:05;;;;;;;3.35;2.22;;;;;;;3.17;100.00;95599.06;5034073;28;20452;-64
2023/11/25 00:13:31;;;;;;;3.53;2.20;;;;;;;3.21;100.00;95616.16;5014655;28;20034;-64
2023/11/25 00:15:56;;;;;;;5.75;2.83;;;;;;;3.24;100.00;95610.75;5022313;28;20022;-64
2023/11/25 00:18:22;;;;;;;5.75;3.25;;;;;;;3.06;100.00;95623.16;5021514;28;20061;-64
2023/11/25 00:20:48;;;;;;;6.15;3.00;;;;;;;2.99;100.00;95639.16;5024857;28;20121;-64
2023/11/25 00:23:13;;;;;;;4.88;2.70;;;;;;;3.04;100.00;95641.47;5024718;28;20061;-64
2023/11/25 00:25:39;;;;;;;4.55;2.20;;;;;;;3.11;100.00;95628.91;5017696;28;20034;-64
2023/11/25 00:28:09;;;;;;;3.20;2.28;;;;;;;2.98;100.00;95641.84;5021885;28;20546;-63
2023/11/25 00:30:35;;;;;;;5.28;2.88;;;;;;;2.84;100.00;95647.91;5022175;28;20030;-64
2023/11/25 00:33:02;;;;;;;5.97;2.63;;;;;;;2.83;100.00;95660.09;5021344;28;20055;-64
2023/11/25 00:35:30;;;;;;;2.35;2.15;;;;;;;2.95;100.00;95670.66;5016516;28;20037;-64
2023/11/25 00:37:56;;;;;;;3.72;2.28;;;;;;;2.98;100.00;95679.09;5021205;28;20044;-64
2023/11/25 00:40:25;;;;;;;8.65;3.55;;;;;;;2.83;100.00;95672.25;5019633;28;20439;-64
2023/11/25 00:42:51;;;;;;;3.90;2.63;;;;;;;2.69;100.00;95673.94;5015320;28;20088;-64
2023/11/25 00:45:16;;;;;;;5.40;2.90;;;;;;;2.93;100.00;95665.56;5014293;28;20030;-64
2023/11/25 00:47:42;;;;;;;2.75;2.17;;;;;;;2.83;100.00;95659.25;5021530;28;20414;-64
2023/11/25 00:50:11;;;;;;;5.80;2.58;;;;;;;2.72;100.00;95662.50;5022689;28;20818;-64
2023/11/25 00:52:37;;;;;;;5.40;2.60;;;;;;;2.73;100.00;95674.56;5029369;28;20530;-64
2023/11/25 00:55:03;;;;;;;6.30;2.45;;;;;;;2.77;100.00;95673.47;5023829;28;20065;-64
2023/11/25 00:57:29;;;;;;;7.28;2.45;;;;;;;2.74;100.00;95681.44;5024770;28;20482;-64
2023/11/25 00:59:54;;;;;;;6.15;3.05;;;;;;;2.67;100.00;95677.56;5024020;28;20098;-64
2023/11/25 01:02:19;;;;;;;5.75;2.70;;;;;;;2.78;100.00;95675.16;5023640;28;20037;-64
2023/11/25 01:04:45;;;;;;;3.53;2.80;;;;;;;2.71;100.00;95681.63;5026840;28;20089;-64
2023/11/25 01:07:10;;;;;;;5.65;3.05;;;;;;;2.64;100.00;95691.56;5031095;28;20036;-64
2023/11/25 01:09:36;;;;;;;5.95;2.45;;;;;;;2.75;100.00;95693.50;5018811;28;20401;-63
2023/11/25 01:12:02;;;;;;;2.10;2.00;;;;;;;2.63;100.00;95689.06;5026806;28;20056;-64
2023/11/25 01:14:28;;;;;;;5.07;2.42;;;;;;;2.63;100.00;95695.09;5020497;28;20108;-64
2023/11/25 01:16:54;;;;;;;3.10;2.70;;;;;;;2.78;100.00;95685.53;5025295;28;20053;-64
2023/11/25 01:19:19;;;;;;;5.75;2.83;;;;;;;2.90;100.00;95688.31;5011401;28;20033;-64
2023/11/25 01:21:45;;;;;;;2.55;1.80;;;;;;;2.79;100.00;95683.75;5032256;28;20487;-63
2023/11/25 01:24:11;;;;;;;3.95;2.03;;;;;;;2.67;100.00;95668.00;5020603;28;20026;-64
2023/11/25 01:26:40;;;;;;;3.60;2.53;;;;;;;2.71;100.00;95676.44;5031435;28;20085;-63
2023/11/25 01:29:06;;;;;;;1.88;1.73;;;;;;;2.70;100.00;95667.81;5023151;28;20030;-64
2023/11/25 01:31:32;;;;;;;2.90;2.53;;;;;;;2.85;100.00;95668.63;5023586;28;20106;-64
2023/11/25 01:33:57;;;;;;;2.22;2.03;;;;;;;2.67;100.00;95680.16;5021584;28;20033;-64
2023/11/25 01:36:24;;;;;;;3.15;2.30;;;;;;;2.62;100.00;95682.19;5029635;28;20093;-63
2023/11/25 01:38:49;;;;;;;4.15;2.30;;;;;;;2.69;100.00;95693.91;5035842;28;20021;-64
2023/11/25 01:41:14;;;;;;;3.00;2.70;;;;;;;2.68;100.00;95687.03;5022032;28;20068;-64
2023/11/25 01:43:40;;;;;;;2.45;1.83;;;;;;;2.66;100.00;95681.94;5019991;28;20037;-64
2023/11/25 01:46:06;;;;;;;2.80;2.30;;;;;;;2.50;100.00;95683.78;5028984;28;20036;-64
2023/11/25 01:48:33;;;;;;;2.05;1.83;;;;;;;2.44;100.00;95700.56;5033811;28;20042;-64
2023/11/25 01:51:02;;;;;;;2.08;1.90;;;;;;;2.62;100.00;95692.59;5027469;28;20410;-63
2023/11/25 01:53:28;;;;;;;4.75;2.10;;;;;;;2.65;100.00;95680.25;5029153;28;20029;-63
2023/11/25 01:55:54;;;;;;;3.35;2.15;;;;;;;2.65;100.00;95689.81;5026251;28;20020;-64
2023/11/25 01:58:20;;;;;;;2.42;2.10;;;;;;;2.58;100.00;95698.00;5024230;28;20030;-64
2023/11/25 02:00:46;;;;;;;1.55;1.45;;;;;;;2.58;100.00;95708.38;5018313;28;20084;-63
2023/11/25 02:03:16;;;;;;;2.28;2.05;;;;;;;2.50;100.00;95720.16;5024855;28;20040;-64
2023/11/25 02:05:45;;;;;;;5.13;2.20;;;;;;;2.51;100.00;95714.88;5021014;28;20022;-64
2023/11/25 02:08:11;;;;;;;1.90;1.80;;;;;;;2.62;100.00;95716.00;5021551;28;20018;-64
2023/11/25 02:10:37;;;;;;;2.15;1.60;;;;;;;2.53;100.00;95710.41;5021930;28;20085;-64
2023/11/25 02:13:03;;;;;;;2.80;2.13;;;;;;;2.42;100.00;95728.41;5032319;28;20610;-64
2023/11/25 02:15:30;;;;;;;3.67;2.05;;;;;;;2.28;100.00;95737.84;5028196;28;20021;-64
2023/11/25 02:17:55;;;;;;;3.00;1.95;;;;;;;2.25;100.00;95756.22;5027653;28;20024;-63
2023/11/25 02:20:40;;;;;;;1.88;1.77;;;;;;;2.22;100.00;95740.81;5023487;28;20017;-63
2023/11/25 02:23:16;;;;;;;2.45;2.25;;;;;;;2.31;100.00;95748.97;5027252;28;20485;-63
2023/11/25 02:25:50;;;;;;;2.30;2.10;;;;;;;2.20;100.00;95745.25;5025684;28;20125;-63
2023/11/25 02:28:16;;;;;;;4.32;2.15;;;;;;;2.17;100.00;95734.22;5023077;28;20037;-64
2023/11/25 02:30:45;;;;;;;3.35;1.90;;;;;;;2.13;100.00;95730.97;5021927;28;20069;-64
2023/11/25 02:33:12;;;;;;;1.88;1.67;;;;;;;2.20;100.00;95739.22;5020096;28;20029;-63
2023/11/25 02:35:37;;;;;;;2.65;2.33;;;;;;;2.21;100.00;95726.16;5026044;28;20021;-64
2023/11/25 02:38:04;;;;;;;2.10;1.98;;;;;;;2.15;100.00;95731.72;5021910;28;20028;-64
2023/11/25 02:40:30;;;;;;;4.72;2.20;;;;;;;2.17;100.00;95735.06;5032490;28;20036;-64
2023/11/25 02:42:56;;;;;;;2.08;1.88;;;;;;;2.18;100.00;95718.53;5016736;28;20390;-64
2023/11/25 02:45:24;;;;;;;3.80;2.20;;;;;;;2.20;100.00;95727.09;5027313;28;20017;-63
2023/11/25 02:47:50;;;;;;;2.05;1.95;;;;;;;2.12;100.00;95706.75;5018190;28;20463;-63
2023/11/25 02:50:17;;;;;;;1.70;1.60;;;;;;;2.15;100.00;95710.94;5023074;28;20025;-63
2023/11/25 02:52:43;;;;;;;1.92;1.75;;;;;;;2.23;100.00;95700.09;5019067;28;20187;-64
2023/11/25 02:55:10;;;;;;;3.35;2.15;;;;;;;2.18;100.00;95700.34;5020384;28;20049;-64
2023/11/25 02:57:43;;;;;;;1.92;1.65;;;;;;;2.25;100.00;95701.66;5028260;28;20029;-64
2023/11/25 03:00:33;;;;;;;4.07;1.92;;;;;;;2.26;100.00;95708.53;5019845;28;20041;-63
2023/11/25 03:03:17;;;;;;;1.80;1.70;;;;;;;2.29;100.00;95712.72;5026769;28;20029;-63
2023/11/25 03:05:47;;;;;;;1.60;1.60;;;;;;;2.16;100.00;95712.59;5015406;28;20096;-63
2023/11/25 03:08:13;;;;;;;2.08;1.98;;;;;;;2.03;100.00;95722.88;5024701;28;20446;-63
2023/11/25 03:10:42;;;;;;;2.97;1.88;;;;;;;2.03;100.00;95725.47;5017981;28;20018;-64
2023/11/25 03:13:11;;;;;;;1.83;1.73;;;;;;;2.03;100.00;95732.41;5027713;28;20029;-63
2023/11/25 03:15:38;;;;;;;2.00;1.90;;;;;;;1.99;100.00;95747.34;5029347;28;20032;-63
2023/11/25 03:18:07;;;;;;;2.40;2.17;;;;;;;2.01;100.00;95737.72;5022235;28;20113;-64
2023/11/25 03:20:36;;;;;;;3.35;2.25;;;;;;;1.92;100.00;95741.66;5018320;28;20025;-64
2023/11/25 03:23:08;;;;;;;2.08;1.85;;;;;;;2.11;100.00;95749.22;5019130;28;20032;-64
2023/11/25 03:25:34;;;;;;;3.78;1.70;;;;;;;2.09;100.00;95738.09;5024612;28;20025;-64
2023/11/25 03:28:04;;;;;;;2.67;2.10;;;;;;;2.08;100.00;95735.56;5026703;28;20040;-64
2023/11/25 03:30:31;;;;;;;2.30;2.10;;;;;;;2.06;100.00;95740.03;5023834;28;20052;-64
2023/11/25 03:32:56;;;;;;;3.17;2.03;;;;;;;1.98;100.00;95741.31;5030913;28;20034;-63
2023/11/25 03:35:22;;;;;;;2.92;1.70;;;;;;;1.92;100.00;95749.47;5018991;28;20025;-63
2023/11/25 03:37:48;;;;;;;4.28;1.80;;;;;;;1.96;100.00;95747.50;5031141;28;20025;-63
2023/11/25 03:40:15;;;;;;;1.88;1.58;;;;;;;1.94;100.00;95728.59;5019531;28;20097;-64
2023/11/25 03:42:44;;;;;;;1.92;1.70;;;;;;;1.88;100.00;95731.53;5019476;28;20105;-64
2023/11/25 03:45:12;;;;;;;1.85;1.75;;;;;;;1.77;100.00;95730.41;5020018;28;20134;-64
2023/11/25 03:47:41;;;;;;;2.08;1.95;;;;;;;1.82;100.00;95732.72;5026465;28;20746;-63
2023/11/25 03:50:08;;;;;;;2.30;1.90;;;;;;;1.85;100.00;95737.72;5016911;28;20955;-64
2023/11/25 03:52:34;;;;;;;4.13;2.08;;;;;;;1.83;100.00;95731.78;5022687;28;20093;-64
2023/11/25 03:55:02;;;;;;;2.72;1.80;;;;;;;1.85;100.00;95720.41;5023378;28;20487;-63
2023/11/25 03:57:27;;;;;;;1.90;1.83;;;;;;;1.81;100.00;95728.44;5021638;28;20025;-64
2023/11/25 03:59:53;;;;;;;2.13;2.03;;;;;;;1.75;100.00;95734.00;5019603;28;20025;-64
2023/11/25 04:02:19;;;;;;;2.60;2.17;;;;;;;1.75;100.00;95740.00;5021387;28;20037;-63
2023/11/25 04:04:45;;;;;;;2.88;1.98;;;;;;;1.76;100.00;95746.06;5015334;28;20024;-63
2023/11/25 04:07:11;;;;;;;2.90;2.03;;;;;;;1.76;100.00;95740.84;5020139;28;20026;-63
2023/11/25 04:09:37;;;;;;;2.30;2.10;;;;;;;1.70;100.00;95742.03;5018726;28;20589;-63
2023/11/25 04:12:03;;;;;;;3.25;2.38;;;;;;;1.74;100.00;95750.50;5022903;28;20509;-63
2023/11/25 04:14:29;;;;;;;2.28;1.98;;;;;;;1.69;100.00;95761.13;5022656;28;20018;-64
2023/11/25 04:16:56;;;;;;;2.03;1.80;;;;;;;1.80;100.00;95745.81;5025693;28;20517;-63
2023/11/25 04:19:21;;;;;;;2.28;1.70;;;;;;;1.98;100.00;95727.47;5023336;28;20036;-64
2023/11/25 04:21:49;;;;;;;5.15;1.70;;;;;;;1.93;100.00;95716.53;5025212;28;20490;-64
2023/11/25 04:24:15;;;;;;;1.98;1.88;;;;;;;1.93;100.00;95717.38;5020153;28;20051;-63
2023/11/25 04:26:41;;;;;;;2.92;1.70;;;;;;;1.86;100.00;95723.81;5031099;28;20433;-63
2023/11/25 04:29:07;;;;;;;1.80;1.70;;;;;;;1.97;100.00;95725.81;5026203;28;20071;-64
2023/11/25 04:31:32;;;;;;;6.13;2.20;;;;;;;2.03;100.00;95732.41;5029637;28;20578;-63
2023/11/25 04:33:57;;;;;;;2.75;2.22;;;;;;;1.82;100.00;95749.16;5025962;28;20494;-64
2023/11/25 04:36:24;;;;;;;6.35;3.13;;;;;;;1.80;100.00;95747.53;5019505;28;20030;-63
2023/11/25 04:38:50;;;;;;;4.78;1.98;;;;;;;1.90;100.00;95747.84;5028520;28;20097;-63
2023/11/25 04:41:15;;;;;;;2.58;1.55;;;;;;;1.91;100.00;95755.56;5034159;28;20493;-63
2023/11/25 04:43:41;;;;;;;2.45;1.70;;;;;;;1.72;100.00;95768.75;5026594;28;20036;-63
2023/11/25 04:46:09;;;;;;;2.40;2.20;;;;;;;1.66;100.00;95754.38;5029887;28;20109;-63
2023/11/25 04:48:35;;;;;;;2.58;1.75;;;;;;;1.66;100.00;95766.50;5046554;28;20026;-63
2023/11/25 04:51:01;;;;;;;2.85;1.83;;;;;;;1.69;100.00;95776.69;5034499;28;20021;-63
2023/11/25 04:53:26;;;;;;;2.00;1.75;;;;;;;1.66;100.00;95774.28;5027510;28;20025;-63
2023/11/25 04:55:52;;;;;;;2.17;1.85;;;;;;;1.71;100.00;95780.03;5033275;28;20072;-64
2023/11/25 04:58:18;;;;;;;1.95;1.85;;;;;;;1.60;100.00;95788.44;5025264;28;20022;-63
2023/11/25 05:00:45;;;;;;;4.30;2.83;;;;;;;1.56;100.00;95792.13;5029871;28;20045;-63
2023/11/25 05:03:11;;;;;;;2.85;2.15;;;;;;;1.51;100.00;95800.16;5030923;28;20072;-63
2023/11/25 05:05:36;;;;;;;3.72;1.80;;;;;;;1.53;100.00;95787.91;5029607;28;20041;-63
2023/11/25 05:08:04;;;;;;;1.80;1.55;;;;;;;1.47;100.00;95792.63;5024371;28;20035;-63
2023/11/25 05:10:30;;;;;;;5.75;1.65;;;;;;;1.43;100.00;95794.53;5024241;28;20018;-63
2023/11/25 05:12:55;;;;;;;4.18;2.92;;;;;;;1.40;100.00;95798.13;5028617;28;20514;-63
2023/11/25 05:15:24;;;;;;;2.45;2.17;;;;;;;1.29;100.00;95808.25;5024191;28;20045;-63
2023/11/25 05:17:50;;;;;;;4.43;2.17;;;;;;;1.23;100.00;95821.56;5024293;28;20028;-63
2023/11/25 05:20:16;;;;;;;2.53;2.38;;;;;;;1.22;100.00;95828.50;5029556;28;20022;-63
2023/11/25 05:22:42;;;;;;;2.63;2.10;;;;;;;1.20;100.00;95834.66;5047788;28;20021;-63
2023/11/25 05:25:10;;;;;;;2.35;1.95;;;;;;;1.30;100.00;95822.91;5031726;28;20542;-63
2023/11/25 05:27:36;;;;;;;2.03;1.90;;;;;;;1.28;100.00;95825.56;5030240;28;20026;-63
2023/11/25 05:30:01;;;;;;;3.22;1.88;;;;;;;1.26;100.00;95831.78;5024890;28;20128;-63
2023/11/25 05:32:27;;;;;;;2.90;1.90;;;;;;;1.20;100.00;95817.38;5023187;28;20021;-63
2023/11/25 05:34:53;;;;;;;2.40;2.20;;;;;;;1.29;100.00;95823.81;5031213;28;20639;-63
2023/11/25 05:37:19;;;;;;;2.10;2.00;;;;;;;1.21;100.00;95824.22;5021603;28;20025;-63
2023/11/25 05:39:45;;;;;;;2.10;2.00;;;;;;;1.16;100.00;95825.38;5025950;28;20021;-63
2023/11/25 05:42:11;;;;;;;2.60;1.90;;;;;;;1.29;100.00;95831.59;5028252;28;20610;-63
2023/11/25 05:44:37;;;;;;;23.60;15.43;;;;;;;1.14;100.00;95822.88;5031442;28;20022;-63
2023/11/25 05:47:02;;;;;;;4.75;2.55;;;;;;;1.15;100.00;95824.56;5036578;28;20148;-63
2023/11/25 05:49:28;;;;;;;7.80;5.78;;;;;;;1.12;100.00;95829.91;5034209;28;20144;-63
2023/11/25 05:51:54;;;;;;;4.57;2.80;;;;;;;1.08;100.00;95828.38;5028010;28;20057;-64
2023/11/25 05:54:19;;;;;;;3.65;2.30;;;;;;;1.03;100.00;95820.84;5020185;28;20029;-63
2023/11/25 05:56:45;;;;;;;2.63;1.98;;;;;;;1.12;100.00;95820.38;5030023;28;20021;-63
2023/11/25 05:59:11;;;;;;;3.40;2.17;;;;;;;1.14;100.00;95821.13;5030565;28;20025;-63
2023/11/25 06:01:38;;;;;;;5.57;5.07;;;;;;;1.13;100.00;95814.25;5027132;28;20034;-63
2023/11/25 06:04:03;;;;;;;5.20;2.22;;;;;;;1.26;100.00;95821.41;5016281;28;20033;-63
2023/11/25 06:06:29;;;;;;;4.10;2.35;;;;;;;1.34;100.00;95816.63;5025381;28;20034;-63
2023/11/25 06:08:54;;;;;;;1.70;1.60;;;;;;;1.29;100.00;95816.03;5016829;28;20041;-63
2023/11/25 06:11:21;;;;;;;3.00;2.15;;;;;;;1.32;100.00;95823.66;5035844;28;20030;-64
2023/11/25 06:13:47;;;;;;;4.05;2.00;;;;;;;1.39;100.00;95819.00;5023147;28;20040;-63
2023/11/25 06:16:13;;;;;;;1.65;1.52;;;;;;;1.33;100.00;95822.75;5026070;28;20029;-63
2023/11/25 06:18:39;;;;;;;3.38;1.83;;;;;;;1.37;100.00;95824.25;5029796;28;20113;-63
2023/11/25 06:21:04;;;;;;;2.13;1.92;;;;;;;1.31;100.00;95822.00;5025353;28;20028;-63
2023/11/25 06:23:31;;;;;;;2.08;1.85;;;;;;;1.29;100.00;95831.59;5022863;28;20429;-64
2023/11/25 06:25:56;;;;;;;2.97;1.98;;;;;;;1.35;100.00;95836.47;5035210;28;20117;-63
2023/11/25 06:28:24;;;;;;;3.08;2.22;;;;;;;1.43;100.00;95842.06;5021331;28;20041;-63
2023/11/25 06:30:53;;;;;;;4.95;1.95;;;;;;;1.51;100.00;95833.06;5035925;28;20033;-63
2023/11/25 06:33:24;;;;;;;2.30;2.20;;;;;;;1.40;100.00;95831.84;5035935;28;20052;-63
2023/11/25 06:35:50;;;;;;;2.92;2.35;;;;;;;1.45;100.00;95851.56;5024917;28;20028;-63
2023/11/25 06:38:15;;;;;;;2.38;2.13;;;;;;;1.53;100.00;95850.19;5027795;28;20025;-64
2023/11/25 06:40:40;;;;;;;4.07;1.95;;;;;;;1.54;100.00;95851.88;5026463;28;20026;-63
2023/11/25 06:43:06;;;;;;;2.67;2.00;;;;;;;1.50;100.00;95847.78;5031708;28;20029;-63
2023/11/25 06:45:33;;;;;;;4.35;1.73;;;;;;;1.53;100.00;95844.19;5033900;28;20076;-63
2023/11/25 06:47:59;;;;;;;2.10;1.90;;;;;;;1.63;100.00;95837.56;5028555;28;20115;-63
2023/11/25 06:50:24;;;;;;;3.33;1.75;;;;;;;1.50;100.00;95852.13;5025626;28;20037;-63
2023/11/25 06:52:50;;;;;;;2.47;2.28;;;;;;;1.49;100.00;95858.25;5027894;28;20053;-63
2023/11/25 06:55:18;;;;;;;2.28;2.08;;;;;;;1.59;100.00;95864.59;5018029;28;20030;-63
2023/11/25 06:57:43;;;;;;;2.58;2.35;;;;;;;1.63;100.00;95858.31;5015851;28;20765;-63
2023/11/25 07:00:10;;;;;;;1.95;1.85;;;;;;;1.60;100.00;95861.09;5021558;28;20099;-63
2023/11/25 07:02:36;;;;;;;2.72;1.90;;;;;;;1.49;100.00;95858.25;5022537;28;20087;-63
2023/11/25 07:05:02;;;;;;;3.83;2.20;;;;;;;1.59;100.00;95843.84;5030424;28;20022;-63
2023/11/25 07:07:28;;;;;;;2.05;1.92;;;;;;;1.61;100.00;95836.81;5025344;28;20029;-63
2023/11/25 07:09:53;;;;;;;2.55;2.20;;;;;;;1.63;100.00;95836.75;5018227;28;20044;-63
2023/11/25 07:12:19;;;;;;;5.82;2.28;;;;;;;1.70;100.00;95838.06;5027887;28;20064;-63
2023/11/25 07:14:44;;;;;;;2.67;1.85;;;;;;;1.59;100.00;95843.84;5019474;28;20030;-63
2023/11/25 07:17:12;;;;;;;2.92;2.08;;;;;;;1.51;100.00;95862.41;5015815;28;20029;-63
2023/11/25 07:19:42;;;;;;;2.30;2.10;;;;;;;1.48;100.00;95862.59;5021254;28;20112;-63
2023/11/25 07:22:11;;;;;;;4.03;3.72;;;;;;;1.59;100.00;95877.59;5027060;28;20398;-63
2023/11/25 07:24:39;;;;;;;3.75;2.58;;;;;;;1.62;100.00;95879.19;5024955;28;20037;-64
2023/11/25 07:27:06;;;;;;;3.03;2.67;;;;;;;1.61;100.00;95896.50;5034754;28;20033;-63
2023/11/25 07:29:32;;;;;;;4.60;2.33;;;;;;;1.60;100.00;95887.03;5033330;28;20029;-63
2023/11/25 07:32:00;;;;;;;5.32;2.40;;;;;;;1.59;100.00;95895.75;5015377;28;20481;-63
2023/11/25 07:34:25;;;;;;;3.58;2.85;;;;;;;1.62;100.00;95876.59;5021997;28;20029;-63
2023/11/25 07:36:51;;;;;;;5.32;4.45;;;;;;;1.63;100.00;95886.88;5028012;28;20029;-63
2023/11/25 07:39:19;;;;;;;9.60;6.70;;;;;;;1.64;100.00;95888.56;5028369;28;20474;-64
2023/11/25 07:41:45;;;;;;;7.43;5.40;;;;;;;1.67;100.00;95893.59;5018242;28;20047;-63
2023/11/25 07:44:11;;;;;;;5.13;3.70;;;;;;;1.75;100.00;95895.75;5018534;28;20085;-63
2023/11/25 07:46:37;;;;;;;3.00;2.78;;;;;;;1.75;100.00;95900.97;5018219;28;20037;-63
2023/11/25 07:49:02;;;;;;;3.28;2.95;;;;;;;1.91;100.00;95900.13;5019623;28;20030;-63
2023/11/25 07:51:27;;;;;;;3.55;3.25;;;;;;;1.97;100.00;95892.00;5028914;28;20045;-63
2023/11/25 07:53:53;;;;;;;3.63;2.13;;;;;;;1.94;100.00;95894.78;5020327;28;20049;-63
2023/11/25 07:56:18;;;;;;;2.78;2.00;;;;;;;1.96;100.00;95883.38;5020557;28;20034;-64
2023/11/25 07:58:44;;;;;;;3.80;2.70;;;;;;;1.85;100.00;95889.16;5015230;28;20096;-63
2023/11/25 08:01:09;;;;;;;3.65;3.30;;;;;;;1.89;100.00;95886.41;5024365;28;20057;-63
2023/11/25 08:03:34;;;;;;;3.92;2.63;;;;;;;1.97;100.00;95900.66;5024167;28;20033;-63
2023/11/25 08:06:00;;;;;;;3.90;2.13;;;;;;;1.81;100.00;95894.59;5020798;28;20068;-63
2023/11/25 08:08:25;;;;;;;4.72;2.38;;;;;;;1.95;100.00;95886.91;5037406;28;20041;-63
2023/11/25 08:10:51;;;;;;;18.63;9.98;;;;;;;1.91;100.00;95895.78;5021880;28;20116;-63
2023/11/25 08:13:19;;;;;;;11.82;5.53;;;;;;;2.04;100.00;95902.91;5023003;28;20030;-63
2023/11/25 08:15:45;;;;;;;3.38;3.08;;;;;;;1.88;100.00;95910.69;5026891;28;20021;-63
2023/11/25 08:18:10;;;;;;;7.78;3.50;;;;;;;1.88;100.00;95897.72;5032961;28;20651;-63
2023/11/25 08:20:36;;;;;;;7.90;3.75;;;;;;;1.94;100.00;95894.78;5030973;28;20041;-63
2023/11/25 08:23:02;;;;;;;6.90;3.30;;;;;;;1.78;100.00;95900.81;5026309;28;20049;-63
2023/11/25 08:25:27;;;;;;;2.13;1.92;;;;;;;1.81;100.00;95910.19;5030658;28;20057;-63
2023/11/25 08:27:52;;;;;;;14.85;9.23;;;;;;;1.81;100.00;95913.63;5037959;28;20044;-63
2023/11/25 08:30:18;;;;;;;4.35;3.10;;;;;;;1.80;100.00;95903.31;5020770;28;20033;-63
2023/11/25 08:32:43;;;;;;;5.57;4.03;;;;;;;1.86;100.00;95919.41;5020812;28;20030;-64
2023/11/25 08:35:09;;;;;;;6.63;3.97;;;;;;;1.98;100.00;95917.91;5018184;28;20079;-64
2023/11/25 08:37:38;;;;;;;4.43;3.67;;;;;;;1.94;100.00;95921.59;5020885;28;20093;-64
2023/11/25 08:40:09;;;;;;;3.70;2.60;;;;;;;2.03;100.00;95935.84;5024786;28;20083;-64
2023/11/25 08:42:35;;;;;;;3.63;2.47;;;;;;;2.08;100.00;95940.75;5034864;28;20026;-64
2023/11/25 08:45:02;;;;;;;7.07;3.13;;;;;;;1.95;100.00;95933.66;5023372;28;20039;-64
2023/11/25 08:47:27;;;;;;;3.20;2.75;;;;;;;2.07;100.00;95928.69;5026587;28;20029;-64
2023/11/25 08:49:53;;;;;;;5.30;3.88;;;;;;;2.13;100.00;95941.38;5027657;28;20029;-64
2023/11/25 08:52:19;;;;;;;3.53;3.22;;;;;;;2.20;100.00;95945.31;5034922;28;20048;-63
2023/11/25 08:54:48;;;;;;;3.30;2.90;;;;;;;2.21;100.00;95952.16;5026533;28;21063;-64
2023/11/25 08:57:15;;;;;;;5.18;3.92;;;;;;;2.21;100.00;95951.31;5030835;28;20025;-64
2023/11/25 08:59:41;;;;;;;3.58;2.40;;;;;;;2.15;100.00;95945.53;5035439;28;20036;-64
2023/11/25 09:02:09;;;;;;;7.45;3.25;;;;;;;2.13;100.00;95951.75;5035038;28;20085;-63
2023/11/25 09:04:36;;;;;;;4.40;3.00;;;;;;;2.20;100.00;95957.44;5018912;28;20038;-63
2023/11/25 09:07:02;;;;;;;3.63;2.67;;;;;;;2.16;100.00;95961.97;5022274;28;20406;-63
2023/11/25 09:09:27;;;;;;;4.90;3.25;;;;;;;2.15;100.00;95968.09;5028708;28;20080;-63
2023/11/25 09:11:56;;;;;;;7.40;4.57;;;;;;;2.21;100.00;95970.34;5031412;28;20060;-64
2023/11/25 09:14:21;;;;;;;5.97;3.88;;;;;;;2.31;100.00;95968.09;5032968;28;20024;-64
2023/11/25 09:16:47;;;;;;;7.50;4.03;;;;;;;2.41;100.00;95978.81;5016941;28;20068;-64
2023/11/25 09:19:13;;;;;;;7.05;4.05;;;;;;;2.24;100.00;95972.78;5036340;28;20026;-64
2023/11/25 09:21:38;;;;;;;7.53;4.45;;;;;;;2.18;100.00;95973.13;5031786;28;20057;-64
2023/11/25 09:24:05;;;;;;;5.93;2.92;;;;;;;2.11;100.00;95975.22;5028545;28;20033;-65
2023/11/25 09:26:30;;;;;;;6.50;4.80;;;;;;;2.04;100.00;95978.22;5030331;28;20033;-64
2023/11/25 09:28:56;;;;;;;30.15;24.10;;;;;;;2.21;100.00;95988.53;5025056;28;20592;-64
2023/11/25 09:31:22;;;;;;;14.77;11.85;;;;;;;2.14;100.00;95990.63;5026315;28;20029;-64
2023/11/25 09:33:49;;;;;;;13.02;10.95;;;;;;;2.32;100.00;95979.31;5028205;28;20026;-65
2023/11/25 09:36:14;;;;;;;7.75;4.57;;;;;;;2.21;100.00;95985.94;5016803;28;20036;-65
2023/11/25 09:38:40;;;;;;;8.15;5.63;;;;;;;2.25;100.00;95982.25;5032601;28;20034;-63
2023/11/25 09:41:05;;;;;;;3.45;3.10;;;;;;;2.11;100.00;95983.00;5019396;28;20087;-64
2023/11/25 09:43:31;;;;;;;8.27;3.90;;;;;;;2.39;100.00;95991.88;5019671;28;20092;-63
2023/11/25 09:45:57;;;;;;;7.72;5.53;;;;;;;2.42;100.00;95988.28;5018517;28;20068;-63
2023/11/25 09:48:23;;;;;;;6.18;4.65;;;;;;;2.47;100.00;95980.25;5019276;28;20037;-62
2023/11/25 09:50:53;;;;;;;16.58;7.68;;;;;;;2.40;100.00;95980.56;5023119;28;20029;-63
2023/11/25 09:53:26;;;;;;;37.95;15.32;;;;;;;2.33;100.00;95979.25;5024237;28;20091;-63
2023/11/25 09:56:01;;;;;;;21.50;10.60;;;;;;;2.37;100.00;95985.94;5016220;28;20030;-63
2023/11/25 09:58:28;;;;;;;12.52;9.68;;;;;;;2.46;100.00;95994.16;5014856;28;20095;-63
2023/11/25 10:00:56;;;;;;;7.20;4.15;;;;;;;2.40;100.00;95997.94;5014863;28;20033;-63
2023/11/25 10:03:21;;;;;;;7.13;4.60;;;;;;;2.50;100.00;95995.66;5020277;28;20049;-63
2023/11/25 10:05:47;;;;;;;5.72;3.40;;;;;;;2.57;100.00;95986.59;5015657;28;20030;-63
2023/11/25 10:08:12;;;;;;;5.50;3.85;;;;;;;2.66;100.00;95991.31;5025835;28;20523;-63
2023/11/25 10:10:38;;;;;;;5.13;3.00;;;;;;;2.66;100.00;95985.25;5029204;28;20105;-63
2023/11/25 10:13:04;;;;;;;8.23;3.33;;;;;;;2.96;100.00;95972.28;5026169;28;20029;-63
2023/11/25 10:15:31;;;;;;;4.45;3.38;;;;;;;3.20;100.00;95952.72;5030050;28;20037;-64
2023/11/25 10:17:57;;;;;;;9.65;3.13;;;;;;;3.59;100.00;95946.06;5018596;28;20133;-63
2023/11/25 10:20:22;;;;;;;5.15;3.58;;;;;;;3.94;100.00;95932.66;5025319;28;20752;-66
2023/11/25 10:22:50;;;;;;;4.82;3.20;;;;;;;4.02;100.00;95929.59;5022475;28;20091;-65
2023/11/25 10:25:16;;;;;;;5.15;3.78;;;;;;;4.01;100.00;95920.94;5030507;28;20042;-65
2023/11/25 10:27:43;;;;;;;8.57;4.07;;;;;;;3.89;100.00;95926.06;5012812;28;20038;-66
2023/11/25 10:30:13;;;;;;;4.60;3.63;;;;;;;4.01;100.00;95926.13;5029410;28;20050;-66
2023/11/25 10:32:39;;;;;;;4.55;2.60;;;;;;;4.37;100.00;95928.31;5032742;28;20056;-64
2023/11/25 10:35:05;;;;;;;7.10;3.05;;;;;;;4.73;100.00;95916.41;5026165;28;20092;-65
2023/11/25 10:37:32;;;;;;;4.43;2.70;;;;;;;4.97;100.00;95910.50;5014291;28;20112;-65
2023/11/25 10:39:59;;;;;;;5.57;2.80;;;;;;;4.78;100.00;95909.16;5021958;28;20025;-65
2023/11/25 10:42:26;;;;;;;7.18;2.50;;;;;;;4.61;100.00;95912.00;5016144;28;20026;-65
2023/11/25 10:44:52;;;;;;;5.35;2.70;;;;;;;4.88;100.00;95912.81;5024733;28;20036;-65
2023/11/25 10:47:31;;;;;;;5.13;2.55;;;;;;;5.08;100.00;95918.47;5027771;28;20022;-64
2023/11/25 10:49:58;;;;;;;6.75;2.55;;;;;;;4.85;100.00;95936.50;5021104;28;20025;-64
2023/11/25 10:52:23;;;;;;;4.63;2.72;;;;;;;4.59;100.00;95933.81;5012697;28;20483;-64
2023/11/25 10:54:50;;;;;;;6.32;3.22;;;;;;;4.59;100.00;95936.41;5026997;28;20140;-64
2023/11/25 10:57:18;;;;;;;6.05;3.40;;;;;;;4.94;100.00;95937.66;5020416;28;20070;-64
2023/11/25 10:59:45;;;;;;;4.85;2.80;;;;;;;5.17;100.00;95932.69;5020684;28;20021;-64
2023/11/25 11:02:54;;;;;;;4.20;2.80;;;;;;;5.06;100.00;95928.19;5020493;28;20029;-65
2023/11/25 11:06:01;;;;;;;6.40;2.78;;;;;;;5.24;100.00;95943.56;5006257;28;20064;-66
2023/11/25 11:08:36;;;;;;;;;;;;;;;5.30;100.00;95930.09;5028402;28;20021;-65
2023/11/25 11:11:09;;;;;;;3.58;2.40;;;;;;;5.40;100.00;95907.63;5020084;28;19910;-65
2023/11/25 11:14:11;;;;;;;2.45;2.25;;;;;;;5.35;100.00;95899.28;5022564;28;20097;-65
2023/11/25 11:16:39;;;;;;;5.68;2.60;;;;;;;5.12;100.00;95893.84;5019592;28;20014;-66
2023/11/25 11:19:07;;;;;;;7.20;3.25;;;;;;;4.70;100.00;95888.78;5020493;28;20025;-65
2023/11/25 11:21:37;;;;;;;4.88;2.92;;;;;;;4.68;100.00;95903.69;5014977;28;20409;-65
2023/11/25 11:24:04;;;;;;;9.90;3.67;;;;;;;4.62;100.00;95905.84;5018213;28;20411;-66
2023/11/25 11:26:43;;;;;;;4.47;3.35;;;;;;;4.35;100.00;95912.75;5019958;28;20096;-66
2023/11/25 11:29:28;;;;;;;8.63;6.47;;;;;;;4.10;100.00;95909.09;5023587;28;20037;-65
2023/11/25 11:32:01;;;;;;;4.05;3.70;;;;;;;4.18;100.00;95898.19;5018049;28;20056;-65
2023/11/25 11:34:28;;;;;;;3.53;3.22;;;;;;;4.54;100.00;95890.72;5019492;28;20061;-66